sensor_id;sensor_type;location;lat;lon;timestamp;P1;durP1;ratioP1;P2;durP2;ratioP2
57389;SDS011;43217;52.694;6.214;2022-12-18T00:00:46;99.80;;;47.60;;
57389;SDS011;43217;52.694;6.214;2022-12-18T00:03:12;104.47;;;48.30;;
57389;SDS011;43217;52.694;6.214;2022-12-18T00:05:51;101.38;;;46.92;;
57389;SDS011;43217;52.694;6.214;2022-12-18T00:08:17;103.50;;;48.53;;
57389;SDS011;43217;52.694;6.214;2022-12-18T00:10:44;100.63;;;47.08;;
57389;SDS011;43217;52.694;6.214;2022-12-18T00:13:10;100.90;;;48.10;;
57389;SDS011;43217;52.694;6.214;2022-12-18T00:15:36;104.03;;;49.70;;
57389;SDS011;43217;52.694;6.214;2022-12-18T00:18:04;107.32;;;51.22;;
57389;SDS011;43217;52.694;6.214;2022-12-18T00:20:30;104.05;;;50.50;;
57389;SDS011;43217;52.694;6.214;2022-12-18T00:22:55;98.40;;;47.97;;
57389;SDS011;43217;52.694;6.214;2022-12-18T00:25:21;101.50;;;50.75;;
57389;SDS011;43217;52.694;6.214;2022-12-18T00:27:47;105.32;;;50.10;;
57389;SDS011;43217;52.694;6.214;2022-12-18T00:30:13;107.75;;;51.70;;
57389;SDS011;43217;52.694;6.214;2022-12-18T00:32:39;102.72;;;50.80;;
57389;SDS011;43217;52.694;6.214;2022-12-18T00:35:05;111.43;;;51.38;;
57389;SDS011;43217;52.694;6.214;2022-12-18T00:37:33;105.07;;;51.45;;
57389;SDS011;43217;52.694;6.214;2022-12-18T00:39:59;114.72;;;54.65;;
57389;SDS011;43217;52.694;6.214;2022-12-18T00:42:25;110.97;;;53.15;;
57389;SDS011;43217;52.694;6.214;2022-12-18T00:45:09;108.45;;;53.95;;
57389;SDS011;43217;52.694;6.214;2022-12-18T00:47:35;108.60;;;53.50;;
57389;SDS011;43217;52.694;6.214;2022-12-18T00:50:00;105.00;;;53.03;;
57389;SDS011;43217;52.694;6.214;2022-12-18T00:52:27;104.20;;;53.67;;
57389;SDS011;43217;52.694;6.214;2022-12-18T00:54:52;115.43;;;56.05;;
57389;SDS011;43217;52.694;6.214;2022-12-18T00:57:18;114.05;;;54.40;;
57389;SDS011;43217;52.694;6.214;2022-12-18T00:59:44;115.53;;;54.22;;
57389;SDS011;43217;52.694;6.214;2022-12-18T01:02:10;115.63;;;55.72;;
57389;SDS011;43217;52.694;6.214;2022-12-18T01:04:35;130.13;;;56.55;;
57389;SDS011;43217;52.694;6.214;2022-12-18T01:07:01;115.95;;;56.08;;
57389;SDS011;43217;52.694;6.214;2022-12-18T01:09:26;115.55;;;55.83;;
57389;SDS011;43217;52.694;6.214;2022-12-18T01:11:52;115.90;;;54.97;;
57389;SDS011;43217;52.694;6.214;2022-12-18T01:14:17;109.90;;;53.80;;
57389;SDS011;43217;52.694;6.214;2022-12-18T01:16:43;111.90;;;55.42;;
57389;SDS011;43217;52.694;6.214;2022-12-18T01:19:09;116.35;;;55.90;;
57389;SDS011;43217;52.694;6.214;2022-12-18T01:21:34;113.40;;;54.40;;
57389;SDS011;43217;52.694;6.214;2022-12-18T01:24:00;112.93;;;54.53;;
57389;SDS011;43217;52.694;6.214;2022-12-18T01:26:26;112.95;;;52.75;;
57389;SDS011;43217;52.694;6.214;2022-12-18T01:28:54;110.63;;;55.58;;
57389;SDS011;43217;52.694;6.214;2022-12-18T01:31:22;106.25;;;53.33;;
57389;SDS011;43217;52.694;6.214;2022-12-18T01:33:53;96.30;;;51.42;;
57389;SDS011;43217;52.694;6.214;2022-12-18T01:36:23;105.90;;;52.83;;
57389;SDS011;43217;52.694;6.214;2022-12-18T01:38:58;101.97;;;52.50;;
57389;SDS011;43217;52.694;6.214;2022-12-18T01:41:26;94.68;;;50.75;;
57389;SDS011;43217;52.694;6.214;2022-12-18T01:47:18;93.82;;;49.83;;
57389;SDS011;43217;52.694;6.214;2022-12-18T01:49:47;93.72;;;50.28;;
57389;SDS011;43217;52.694;6.214;2022-12-18T01:52:14;83.22;;;48.47;;
57389;SDS011;43217;52.694;6.214;2022-12-18T01:54:42;91.35;;;49.42;;
57389;SDS011;43217;52.694;6.214;2022-12-18T01:57:08;84.70;;;47.88;;
57389;SDS011;43217;52.694;6.214;2022-12-18T01:59:33;88.13;;;48.72;;
57389;SDS011;43217;52.694;6.214;2022-12-18T02:04:27;86.97;;;47.08;;
57389;SDS011;43217;52.694;6.214;2022-12-18T02:09:34;91.43;;;49.28;;
57389;SDS011;43217;52.694;6.214;2022-12-18T02:12:19;92.47;;;49.10;;
57389;SDS011;43217;52.694;6.214;2022-12-18T02:17:22;95.22;;;47.72;;
57389;SDS011;43217;52.694;6.214;2022-12-18T02:20:02;96.75;;;50.70;;
57389;SDS011;43217;52.694;6.214;2022-12-18T02:28:09;87.80;;;46.25;;
57389;SDS011;43217;52.694;6.214;2022-12-18T02:30:38;90.38;;;47.10;;
57389;SDS011;43217;52.694;6.214;2022-12-18T02:33:06;85.68;;;46.30;;
57389;SDS011;43217;52.694;6.214;2022-12-18T02:35:34;90.88;;;46.90;;
57389;SDS011;43217;52.694;6.214;2022-12-18T02:38:01;85.80;;;45.35;;
57389;SDS011;43217;52.694;6.214;2022-12-18T02:40:30;90.97;;;47.40;;
57389;SDS011;43217;52.694;6.214;2022-12-18T02:43:02;86.10;;;47.20;;
57389;SDS011;43217;52.694;6.214;2022-12-18T02:45:49;79.75;;;45.70;;
57389;SDS011;43217;52.694;6.214;2022-12-18T02:48:18;78.82;;;43.03;;
57389;SDS011;43217;52.694;6.214;2022-12-18T02:53:53;76.68;;;42.90;;
57389;SDS011;43217;52.694;6.214;2022-12-18T02:56:28;80.68;;;43.20;;
57389;SDS011;43217;52.694;6.214;2022-12-18T02:59:07;73.20;;;42.00;;
57389;SDS011;43217;52.694;6.214;2022-12-18T03:02:04;81.13;;;42.50;;
57389;SDS011;43217;52.694;6.214;2022-12-18T03:07:15;78.45;;;41.40;;
57389;SDS011;43217;52.694;6.214;2022-12-18T03:09:47;76.25;;;40.72;;
57389;SDS011;43217;52.694;6.214;2022-12-18T03:12:20;75.60;;;40.70;;
57389;SDS011;43217;52.694;6.214;2022-12-18T03:15:00;76.95;;;40.63;;
57389;SDS011;43217;52.694;6.214;2022-12-18T03:17:32;77.35;;;41.75;;
57389;SDS011;43217;52.694;6.214;2022-12-18T03:20:01;73.90;;;41.15;;
57389;SDS011;43217;52.694;6.214;2022-12-18T03:22:33;73.75;;;40.13;;
57389;SDS011;43217;52.694;6.214;2022-12-18T03:25:00;74.22;;;39.25;;
57389;SDS011;43217;52.694;6.214;2022-12-18T03:27:30;73.95;;;39.08;;
57389;SDS011;43217;52.694;6.214;2022-12-18T03:30:03;71.57;;;39.90;;
57389;SDS011;43217;52.694;6.214;2022-12-18T03:35:16;73.40;;;37.83;;
57389;SDS011;43217;52.694;6.214;2022-12-18T03:37:46;69.60;;;39.17;;
57389;SDS011;43217;52.694;6.214;2022-12-18T03:40:12;74.13;;;38.90;;
57389;SDS011;43217;52.694;6.214;2022-12-18T03:43:00;72.70;;;38.47;;
57389;SDS011;43217;52.694;6.214;2022-12-18T03:45:54;67.72;;;37.00;;
57389;SDS011;43217;52.694;6.214;2022-12-18T03:48:31;67.35;;;37.88;;
57389;SDS011;43217;52.694;6.214;2022-12-18T03:51:21;68.07;;;39.03;;
57389;SDS011;43217;52.694;6.214;2022-12-18T03:54:10;66.07;;;36.67;;
57389;SDS011;43217;52.694;6.214;2022-12-18T03:56:43;66.07;;;38.53;;
57389;SDS011;43217;52.694;6.214;2022-12-18T03:59:13;68.72;;;37.03;;
57389;SDS011;43217;52.694;6.214;2022-12-18T04:01:45;65.97;;;35.83;;
57389;SDS011;43217;52.694;6.214;2022-12-18T04:04:14;71.60;;;39.22;;
57389;SDS011;43217;52.694;6.214;2022-12-18T04:06:41;61.87;;;36.43;;
57389;SDS011;43217;52.694;6.214;2022-12-18T04:09:08;69.53;;;38.03;;
57389;SDS011;43217;52.694;6.214;2022-12-18T04:11:34;64.63;;;37.40;;
57389;SDS011;43217;52.694;6.214;2022-12-18T04:14:00;64.50;;;35.65;;
57389;SDS011;43217;52.694;6.214;2022-12-18T04:16:26;63.10;;;34.95;;
57389;SDS011;43217;52.694;6.214;2022-12-18T04:18:52;58.42;;;34.53;;
57389;SDS011;43217;52.694;6.214;2022-12-18T04:21:18;63.70;;;35.58;;
57389;SDS011;43217;52.694;6.214;2022-12-18T04:23:44;61.30;;;35.78;;
57389;SDS011;43217;52.694;6.214;2022-12-18T04:26:11;61.60;;;33.83;;
57389;SDS011;43217;52.694;6.214;2022-12-18T04:28:37;63.38;;;33.90;;
57389;SDS011;43217;52.694;6.214;2022-12-18T04:31:02;58.28;;;32.70;;
57389;SDS011;43217;52.694;6.214;2022-12-18T04:33:28;58.58;;;34.10;;
57389;SDS011;43217;52.694;6.214;2022-12-18T04:35:54;59.75;;;34.15;;
57389;SDS011;43217;52.694;6.214;2022-12-18T04:38:19;55.70;;;32.97;;
57389;SDS011;43217;52.694;6.214;2022-12-18T04:40:45;59.80;;;33.85;;
57389;SDS011;43217;52.694;6.214;2022-12-18T04:43:10;55.97;;;32.95;;
57389;SDS011;43217;52.694;6.214;2022-12-18T04:45:36;56.92;;;32.28;;
57389;SDS011;43217;52.694;6.214;2022-12-18T04:48:02;56.10;;;31.70;;
57389;SDS011;43217;52.694;6.214;2022-12-18T04:50:28;54.85;;;31.35;;
57389;SDS011;43217;52.694;6.214;2022-12-18T04:52:54;55.70;;;32.00;;
57389;SDS011;43217;52.694;6.214;2022-12-18T04:55:20;54.08;;;31.58;;
57389;SDS011;43217;52.694;6.214;2022-12-18T04:57:46;52.38;;;31.33;;
57389;SDS011;43217;52.694;6.214;2022-12-18T05:02:41;48.38;;;30.00;;
57389;SDS011;43217;52.694;6.214;2022-12-18T05:05:07;51.45;;;29.38;;
57389;SDS011;43217;52.694;6.214;2022-12-18T05:07:33;55.47;;;31.38;;
57389;SDS011;43217;52.694;6.214;2022-12-18T05:09:58;52.47;;;32.08;;
57389;SDS011;43217;52.694;6.214;2022-12-18T05:12:24;46.75;;;29.05;;
57389;SDS011;43217;52.694;6.214;2022-12-18T05:14:52;49.65;;;30.63;;
57389;SDS011;43217;52.694;6.214;2022-12-18T05:19:46;49.83;;;30.35;;
57389;SDS011;43217;52.694;6.214;2022-12-18T05:22:12;49.47;;;29.35;;
57389;SDS011;43217;52.694;6.214;2022-12-18T05:24:40;46.47;;;28.63;;
57389;SDS011;43217;52.694;6.214;2022-12-18T05:27:05;53.10;;;30.20;;
57389;SDS011;43217;52.694;6.214;2022-12-18T05:29:31;47.63;;;29.02;;
57389;SDS011;43217;52.694;6.214;2022-12-18T05:31:57;47.65;;;29.98;;
57389;SDS011;43217;52.694;6.214;2022-12-18T05:34:22;56.65;;;33.97;;
57389;SDS011;43217;52.694;6.214;2022-12-18T05:36:48;50.50;;;31.98;;
57389;SDS011;43217;52.694;6.214;2022-12-18T05:39:13;51.88;;;32.08;;
57389;SDS011;43217;52.694;6.214;2022-12-18T05:41:39;49.72;;;32.40;;
57389;SDS011;43217;52.694;6.214;2022-12-18T05:44:05;50.80;;;31.88;;
57389;SDS011;43217;52.694;6.214;2022-12-18T05:46:30;54.08;;;31.55;;
57389;SDS011;43217;52.694;6.214;2022-12-18T05:48:58;60.20;;;37.65;;
57389;SDS011;43217;52.694;6.214;2022-12-18T05:51:26;52.38;;;32.42;;
57389;SDS011;43217;52.694;6.214;2022-12-18T05:53:52;52.42;;;29.65;;
57389;SDS011;43217;52.694;6.214;2022-12-18T05:56:21;52.40;;;30.75;;
57389;SDS011;43217;52.694;6.214;2022-12-18T05:58:47;49.57;;;29.67;;
57389;SDS011;43217;52.694;6.214;2022-12-18T06:01:17;50.70;;;30.40;;
57389;SDS011;43217;52.694;6.214;2022-12-18T06:03:44;53.70;;;31.00;;
57389;SDS011;43217;52.694;6.214;2022-12-18T06:06:14;54.55;;;31.08;;
57389;SDS011;43217;52.694;6.214;2022-12-18T06:08:44;59.17;;;31.90;;
57389;SDS011;43217;52.694;6.214;2022-12-18T06:11:10;53.15;;;30.38;;
57389;SDS011;43217;52.694;6.214;2022-12-18T06:13:36;52.70;;;31.63;;
57389;SDS011;43217;52.694;6.214;2022-12-18T06:16:03;53.15;;;30.85;;
57389;SDS011;43217;52.694;6.214;2022-12-18T06:18:30;58.35;;;33.25;;
57389;SDS011;43217;52.694;6.214;2022-12-18T06:20:56;53.25;;;30.73;;
57389;SDS011;43217;52.694;6.214;2022-12-18T06:23:23;57.42;;;31.48;;
57389;SDS011;43217;52.694;6.214;2022-12-18T06:25:56;51.78;;;30.10;;
57389;SDS011;43217;52.694;6.214;2022-12-18T06:28:22;57.58;;;32.67;;
57389;SDS011;43217;52.694;6.214;2022-12-18T06:30:48;58.45;;;30.63;;
57389;SDS011;43217;52.694;6.214;2022-12-18T06:33:14;54.10;;;31.92;;
57389;SDS011;43217;52.694;6.214;2022-12-18T06:35:40;54.75;;;31.02;;
57389;SDS011;43217;52.694;6.214;2022-12-18T06:38:06;57.75;;;30.77;;
57389;SDS011;43217;52.694;6.214;2022-12-18T06:40:32;54.00;;;30.15;;
57389;SDS011;43217;52.694;6.214;2022-12-18T06:42:58;52.38;;;30.83;;
57389;SDS011;43217;52.694;6.214;2022-12-18T06:45:24;53.55;;;31.15;;
57389;SDS011;43217;52.694;6.214;2022-12-18T06:47:50;50.42;;;29.42;;
57389;SDS011;43217;52.694;6.214;2022-12-18T06:50:15;55.47;;;29.58;;
57389;SDS011;43217;52.694;6.214;2022-12-18T06:52:41;48.85;;;29.20;;
57389;SDS011;43217;52.694;6.214;2022-12-18T06:55:08;49.72;;;29.73;;
57389;SDS011;43217;52.694;6.214;2022-12-18T06:57:35;54.28;;;29.60;;
57389;SDS011;43217;52.694;6.214;2022-12-18T07:00:01;49.53;;;28.73;;
57389;SDS011;43217;52.694;6.214;2022-12-18T07:02:28;47.58;;;28.65;;
57389;SDS011;43217;52.694;6.214;2022-12-18T07:04:53;49.67;;;29.45;;
57389;SDS011;43217;52.694;6.214;2022-12-18T07:07:19;54.13;;;29.48;;
57389;SDS011;43217;52.694;6.214;2022-12-18T07:09:44;47.30;;;28.08;;
57389;SDS011;43217;52.694;6.214;2022-12-18T07:12:10;48.05;;;29.45;;
57389;SDS011;43217;52.694;6.214;2022-12-18T07:14:35;46.28;;;27.88;;
57389;SDS011;43217;52.694;6.214;2022-12-18T07:17:01;49.22;;;29.92;;
57389;SDS011;43217;52.694;6.214;2022-12-18T07:19:27;41.25;;;25.70;;
57389;SDS011;43217;52.694;6.214;2022-12-18T07:21:52;48.00;;;27.45;;
57389;SDS011;43217;52.694;6.214;2022-12-18T07:24:18;43.25;;;27.15;;
57389;SDS011;43217;52.694;6.214;2022-12-18T07:26:45;44.30;;;26.95;;
57389;SDS011;43217;52.694;6.214;2022-12-18T07:29:11;42.42;;;28.15;;
57389;SDS011;43217;52.694;6.214;2022-12-18T07:31:37;42.05;;;27.33;;
57389;SDS011;43217;52.694;6.214;2022-12-18T07:34:03;44.35;;;27.73;;
57389;SDS011;43217;52.694;6.214;2022-12-18T07:36:28;40.90;;;26.10;;
57389;SDS011;43217;52.694;6.214;2022-12-18T07:38:54;40.15;;;25.20;;
57389;SDS011;43217;52.694;6.214;2022-12-18T07:41:20;40.28;;;26.08;;
57389;SDS011;43217;52.694;6.214;2022-12-18T07:43:46;39.60;;;25.52;;
57389;SDS011;43217;52.694;6.214;2022-12-18T07:46:12;39.83;;;26.55;;
57389;SDS011;43217;52.694;6.214;2022-12-18T07:48:42;39.42;;;24.92;;
57389;SDS011;43217;52.694;6.214;2022-12-18T07:51:08;34.70;;;24.33;;
57389;SDS011;43217;52.694;6.214;2022-12-18T07:53:34;35.55;;;24.23;;
57389;SDS011;43217;52.694;6.214;2022-12-18T07:56:01;37.53;;;26.20;;
57389;SDS011;43217;52.694;6.214;2022-12-18T07:58:30;38.10;;;24.95;;
57389;SDS011;43217;52.694;6.214;2022-12-18T08:01:05;37.42;;;25.73;;
57389;SDS011;43217;52.694;6.214;2022-12-18T08:03:33;38.03;;;25.13;;
57389;SDS011;43217;52.694;6.214;2022-12-18T08:06:02;36.22;;;24.52;;
57389;SDS011;43217;52.694;6.214;2022-12-18T08:08:30;37.85;;;24.90;;
57389;SDS011;43217;52.694;6.214;2022-12-18T08:10:56;39.42;;;25.42;;
57389;SDS011;43217;52.694;6.214;2022-12-18T08:13:22;36.08;;;24.02;;
57389;SDS011;43217;52.694;6.214;2022-12-18T08:15:55;35.63;;;24.50;;
57389;SDS011;43217;52.694;6.214;2022-12-18T08:18:29;36.30;;;24.67;;
57389;SDS011;43217;52.694;6.214;2022-12-18T08:21:07;37.85;;;25.27;;
57389;SDS011;43217;52.694;6.214;2022-12-18T08:23:37;36.65;;;25.00;;
57389;SDS011;43217;52.694;6.214;2022-12-18T08:26:03;34.33;;;25.10;;
57389;SDS011;43217;52.694;6.214;2022-12-18T08:28:28;33.17;;;24.13;;
57389;SDS011;43217;52.694;6.214;2022-12-18T08:30:54;35.78;;;24.98;;
57389;SDS011;43217;52.694;6.214;2022-12-18T08:33:20;33.55;;;24.00;;
57389;SDS011;43217;52.694;6.214;2022-12-18T08:35:45;34.45;;;23.77;;
57389;SDS011;43217;52.694;6.214;2022-12-18T08:38:11;35.38;;;24.83;;
57389;SDS011;43217;52.694;6.214;2022-12-18T08:40:36;32.22;;;23.48;;
57389;SDS011;43217;52.694;6.214;2022-12-18T08:43:02;34.67;;;23.80;;
57389;SDS011;43217;52.694;6.214;2022-12-18T08:45:46;34.80;;;26.17;;
57389;SDS011;43217;52.694;6.214;2022-12-18T08:48:12;33.08;;;23.23;;
57389;SDS011;43217;52.694;6.214;2022-12-18T08:50:37;32.50;;;23.50;;
57389;SDS011;43217;52.694;6.214;2022-12-18T08:53:03;31.77;;;23.60;;
57389;SDS011;43217;52.694;6.214;2022-12-18T08:55:29;30.30;;;23.13;;
57389;SDS011;43217;52.694;6.214;2022-12-18T08:57:54;32.33;;;24.02;;
57389;SDS011;43217;52.694;6.214;2022-12-18T09:00:20;28.73;;;21.92;;
57389;SDS011;43217;52.694;6.214;2022-12-18T09:02:46;31.05;;;22.63;;
57389;SDS011;43217;52.694;6.214;2022-12-18T09:05:11;30.88;;;21.83;;
57389;SDS011;43217;52.694;6.214;2022-12-18T09:07:37;27.98;;;20.85;;
57389;SDS011;43217;52.694;6.214;2022-12-18T09:10:03;27.88;;;20.92;;
57389;SDS011;43217;52.694;6.214;2022-12-18T09:12:29;30.92;;;22.80;;
57389;SDS011;43217;52.694;6.214;2022-12-18T09:15:03;28.60;;;22.48;;
57389;SDS011;43217;52.694;6.214;2022-12-18T09:17:29;25.85;;;20.70;;
57389;SDS011;43217;52.694;6.214;2022-12-18T09:19:55;24.88;;;20.45;;
57389;SDS011;43217;52.694;6.214;2022-12-18T09:24:49;22.15;;;18.75;;
57389;SDS011;43217;52.694;6.214;2022-12-18T09:27:15;23.05;;;17.73;;
57389;SDS011;43217;52.694;6.214;2022-12-18T09:29:40;21.45;;;16.80;;
57389;SDS011;43217;52.694;6.214;2022-12-18T09:32:06;21.88;;;16.83;;
57389;SDS011;43217;52.694;6.214;2022-12-18T09:34:31;21.60;;;16.70;;
57389;SDS011;43217;52.694;6.214;2022-12-18T09:36:57;19.45;;;16.02;;
57389;SDS011;43217;52.694;6.214;2022-12-18T09:39:23;20.52;;;15.65;;
57389;SDS011;43217;52.694;6.214;2022-12-18T09:41:53;19.98;;;15.80;;
57389;SDS011;43217;52.694;6.214;2022-12-18T09:44:23;19.67;;;15.00;;
57389;SDS011;43217;52.694;6.214;2022-12-18T09:47:32;18.50;;;14.93;;
57389;SDS011;43217;52.694;6.214;2022-12-18T09:49:45;20.40;;;15.75;;
57389;SDS011;43217;52.694;6.214;2022-12-18T09:52:17;19.30;;;16.17;;
57389;SDS011;43217;52.694;6.214;2022-12-18T09:55:09;19.13;;;16.70;;
57389;SDS011;43217;52.694;6.214;2022-12-18T09:57:55;19.67;;;15.55;;
57389;SDS011;43217;52.694;6.214;2022-12-18T10:00:30;20.95;;;15.20;;
57389;SDS011;43217;52.694;6.214;2022-12-18T10:02:59;16.77;;;14.60;;
57389;SDS011;43217;52.694;6.214;2022-12-18T10:05:52;15.45;;;13.45;;
57389;SDS011;43217;52.694;6.214;2022-12-18T10:08:25;15.60;;;12.95;;
57389;SDS011;43217;52.694;6.214;2022-12-18T10:12:02;16.55;;;13.55;;
57389;SDS011;43217;52.694;6.214;2022-12-18T10:14:15;17.33;;;14.02;;
57389;SDS011;43217;52.694;6.214;2022-12-18T10:16:50;16.73;;;13.97;;
57389;SDS011;43217;52.694;6.214;2022-12-18T10:27:51;18.50;;;13.88;;
57389;SDS011;43217;52.694;6.214;2022-12-18T10:30:21;16.33;;;13.55;;
57389;SDS011;43217;52.694;6.214;2022-12-18T10:32:47;19.27;;;13.73;;
57389;SDS011;43217;52.694;6.214;2022-12-18T10:35:20;16.77;;;12.98;;
57389;SDS011;43217;52.694;6.214;2022-12-18T10:40:51;15.00;;;12.77;;
57389;SDS011;43217;52.694;6.214;2022-12-18T10:43:21;19.15;;;15.00;;
57389;SDS011;43217;52.694;6.214;2022-12-18T10:48:34;24.42;;;19.98;;
57389;SDS011;43217;52.694;6.214;2022-12-18T10:51:04;25.10;;;20.15;;
57389;SDS011;43217;52.694;6.214;2022-12-18T10:53:32;26.58;;;22.52;;
57389;SDS011;43217;52.694;6.214;2022-12-18T10:56:00;16.75;;;14.55;;
57389;SDS011;43217;52.694;6.214;2022-12-18T10:58:35;15.63;;;13.30;;
57389;SDS011;43217;52.694;6.214;2022-12-18T11:03:29;14.90;;;12.43;;
57389;SDS011;43217;52.694;6.214;2022-12-18T11:06:03;18.35;;;15.27;;
57389;SDS011;43217;52.694;6.214;2022-12-18T11:08:30;17.88;;;14.57;;
57389;SDS011;43217;52.694;6.214;2022-12-18T11:10:56;16.75;;;13.35;;
57389;SDS011;43217;52.694;6.214;2022-12-18T11:13:23;15.80;;;12.95;;
57389;SDS011;43217;52.694;6.214;2022-12-18T11:15:50;14.02;;;12.00;;
57389;SDS011;43217;52.694;6.214;2022-12-18T11:18:22;17.35;;;13.43;;
57389;SDS011;43217;52.694;6.214;2022-12-18T11:21:04;18.92;;;15.75;;
57389;SDS011;43217;52.694;6.214;2022-12-18T11:23:33;17.90;;;14.63;;
57389;SDS011;43217;52.694;6.214;2022-12-18T11:26:00;16.03;;;13.30;;
57389;SDS011;43217;52.694;6.214;2022-12-18T11:33:54;14.63;;;11.80;;
57389;SDS011;43217;52.694;6.214;2022-12-18T11:36:39;11.77;;;9.80;;
57389;SDS011;43217;52.694;6.214;2022-12-18T11:39:18;12.82;;;10.82;;
57389;SDS011;43217;52.694;6.214;2022-12-18T11:41:50;14.63;;;12.27;;
57389;SDS011;43217;52.694;6.214;2022-12-18T11:44:47;11.82;;;9.93;;
57389;SDS011;43217;52.694;6.214;2022-12-18T11:47:29;12.80;;;10.88;;
57389;SDS011;43217;52.694;6.214;2022-12-18T11:50:05;22.60;;;15.65;;
57389;SDS011;43217;52.694;6.214;2022-12-18T11:52:42;37.63;;;21.23;;
57389;SDS011;43217;52.694;6.214;2022-12-18T11:55:51;15.80;;;11.77;;
57389;SDS011;43217;52.694;6.214;2022-12-18T12:01:09;13.38;;;10.63;;
57389;SDS011;43217;52.694;6.214;2022-12-18T12:06:30;11.27;;;9.93;;
57389;SDS011;43217;52.694;6.214;2022-12-18T12:11:48;12.55;;;9.82;;
57389;SDS011;43217;52.694;6.214;2022-12-18T12:14:32;10.98;;;9.55;;
57389;SDS011;43217;52.694;6.214;2022-12-18T12:22:36;13.68;;;10.00;;
57389;SDS011;43217;52.694;6.214;2022-12-18T12:25:28;9.95;;;8.73;;
57389;SDS011;43217;52.694;6.214;2022-12-18T12:28:41;11.27;;;9.15;;
57389;SDS011;43217;52.694;6.214;2022-12-18T12:33:53;11.07;;;9.20;;
57389;SDS011;43217;52.694;6.214;2022-12-18T12:36:41;10.35;;;8.85;;
57389;SDS011;43217;52.694;6.214;2022-12-18T12:39:35;10.02;;;8.93;;
57389;SDS011;43217;52.694;6.214;2022-12-18T12:42:04;12.63;;;10.05;;
57389;SDS011;43217;52.694;6.214;2022-12-18T12:44:56;20.83;;;14.32;;
57389;SDS011;43217;52.694;6.214;2022-12-18T12:47:28;13.55;;;11.02;;
57389;SDS011;43217;52.694;6.214;2022-12-18T12:50:02;12.00;;;10.32;;
57389;SDS011;43217;52.694;6.214;2022-12-18T12:52:32;10.27;;;8.98;;
57389;SDS011;43217;52.694;6.214;2022-12-18T12:55:04;10.25;;;8.48;;
57389;SDS011;43217;52.694;6.214;2022-12-18T12:57:40;9.00;;;8.00;;
57389;SDS011;43217;52.694;6.214;2022-12-18T13:00:16;11.52;;;9.45;;
57389;SDS011;43217;52.694;6.214;2022-12-18T13:05:30;13.02;;;9.90;;
57389;SDS011;43217;52.694;6.214;2022-12-18T13:08:06;13.00;;;9.98;;
57389;SDS011;43217;52.694;6.214;2022-12-18T13:10:40;15.32;;;10.88;;
57389;SDS011;43217;52.694;6.214;2022-12-18T13:13:08;13.30;;;9.93;;
57389;SDS011;43217;52.694;6.214;2022-12-18T13:15:42;11.80;;;8.95;;
57389;SDS011;43217;52.694;6.214;2022-12-18T13:18:27;11.77;;;9.05;;
57389;SDS011;43217;52.694;6.214;2022-12-18T13:23:23;11.32;;;9.10;;
57389;SDS011;43217;52.694;6.214;2022-12-18T13:33:45;10.38;;;8.45;;
57389;SDS011;43217;52.694;6.214;2022-12-18T13:36:16;9.30;;;8.20;;
57389;SDS011;43217;52.694;6.214;2022-12-18T13:44:57;11.38;;;9.02;;
57389;SDS011;43217;52.694;6.214;2022-12-18T13:47:33;10.43;;;8.25;;
57389;SDS011;43217;52.694;6.214;2022-12-18T13:50:09;12.63;;;10.15;;
57389;SDS011;43217;52.694;6.214;2022-12-18T13:52:50;23.58;;;14.80;;
57389;SDS011;43217;52.694;6.214;2022-12-18T13:55:18;10.35;;;8.93;;
57389;SDS011;43217;52.694;6.214;2022-12-18T13:57:45;10.35;;;9.32;;
57389;SDS011;43217;52.694;6.214;2022-12-18T14:02:49;10.35;;;9.27;;
57389;SDS011;43217;52.694;6.214;2022-12-18T14:08:01;10.32;;;8.10;;
57389;SDS011;43217;52.694;6.214;2022-12-18T14:10:30;8.98;;;8.07;;
57389;SDS011;43217;52.694;6.214;2022-12-18T14:12:57;8.80;;;7.72;;
57389;SDS011;43217;52.694;6.214;2022-12-18T14:15:34;10.02;;;8.40;;
57389;SDS011;43217;52.694;6.214;2022-12-18T14:18:02;9.55;;;8.07;;
57389;SDS011;43217;52.694;6.214;2022-12-18T14:20:44;10.50;;;8.85;;
57389;SDS011;43217;52.694;6.214;2022-12-18T14:26:18;9.35;;;7.75;;
57389;SDS011;43217;52.694;6.214;2022-12-18T14:28:45;10.25;;;8.15;;
57389;SDS011;43217;52.694;6.214;2022-12-18T14:31:20;11.00;;;8.32;;
57389;SDS011;43217;52.694;6.214;2022-12-18T14:33:51;12.88;;;10.07;;
57389;SDS011;43217;52.694;6.214;2022-12-18T14:36:18;12.75;;;10.40;;
57389;SDS011;43217;52.694;6.214;2022-12-18T14:38:52;10.50;;;9.38;;
57389;SDS011;43217;52.694;6.214;2022-12-18T14:41:20;21.75;;;14.13;;
57389;SDS011;43217;52.694;6.214;2022-12-18T14:43:48;23.40;;;15.50;;
57389;SDS011;43217;52.694;6.214;2022-12-18T14:48:57;12.10;;;10.60;;
57389;SDS011;43217;52.694;6.214;2022-12-18T14:51:47;11.98;;;10.63;;
57389;SDS011;43217;52.694;6.214;2022-12-18T14:54:15;10.48;;;8.95;;
57389;SDS011;43217;52.694;6.214;2022-12-18T14:56:44;10.93;;;9.50;;
57389;SDS011;43217;52.694;6.214;2022-12-18T14:59:17;11.27;;;9.73;;
57389;SDS011;43217;52.694;6.214;2022-12-18T15:04:36;12.02;;;10.00;;
57389;SDS011;43217;52.694;6.214;2022-12-18T15:07:11;12.57;;;10.63;;
57389;SDS011;43217;52.694;6.214;2022-12-18T15:12:36;15.48;;;10.63;;
57389;SDS011;43217;52.694;6.214;2022-12-18T15:20:33;11.45;;;10.00;;
57389;SDS011;43217;52.694;6.214;2022-12-18T15:23:17;10.85;;;8.90;;
57389;SDS011;43217;52.694;6.214;2022-12-18T15:28:35;10.73;;;8.77;;
57389;SDS011;43217;52.694;6.214;2022-12-18T15:31:06;9.07;;;7.90;;
57389;SDS011;43217;52.694;6.214;2022-12-18T15:33:43;14.52;;;11.70;;
57389;SDS011;43217;52.694;6.214;2022-12-18T15:36:24;11.50;;;9.13;;
57389;SDS011;43217;52.694;6.214;2022-12-18T15:38:56;12.20;;;9.75;;
57389;SDS011;43217;52.694;6.214;2022-12-18T15:41:24;11.93;;;10.63;;
57389;SDS011;43217;52.694;6.214;2022-12-18T15:43:52;9.05;;;8.00;;
57389;SDS011;43217;52.694;6.214;2022-12-18T15:46:19;10.85;;;9.75;;
57389;SDS011;43217;52.694;6.214;2022-12-18T15:53:42;9.20;;;8.18;;
57389;SDS011;43217;52.694;6.214;2022-12-18T15:56:11;13.32;;;10.73;;
57389;SDS011;43217;52.694;6.214;2022-12-18T15:58:59;11.80;;;9.57;;
57389;SDS011;43217;52.694;6.214;2022-12-18T16:01:27;11.75;;;10.05;;
57389;SDS011;43217;52.694;6.214;2022-12-18T16:03:54;8.85;;;7.95;;
57389;SDS011;43217;52.694;6.214;2022-12-18T16:06:20;10.27;;;9.10;;
57389;SDS011;43217;52.694;6.214;2022-12-18T16:08:47;10.05;;;8.48;;
57389;SDS011;43217;52.694;6.214;2022-12-18T16:11:24;10.55;;;9.43;;
57389;SDS011;43217;52.694;6.214;2022-12-18T16:14:12;11.82;;;9.82;;
57389;SDS011;43217;52.694;6.214;2022-12-18T16:16:54;14.45;;;12.10;;
57389;SDS011;43217;52.694;6.214;2022-12-18T16:19:22;13.30;;;11.15;;
57389;SDS011;43217;52.694;6.214;2022-12-18T16:21:48;11.98;;;10.15;;
57389;SDS011;43217;52.694;6.214;2022-12-18T16:24:16;17.23;;;12.35;;
57389;SDS011;43217;52.694;6.214;2022-12-18T16:26:44;12.98;;;10.80;;
57389;SDS011;43217;52.694;6.214;2022-12-18T16:29:10;16.38;;;12.52;;
57389;SDS011;43217;52.694;6.214;2022-12-18T16:31:36;11.48;;;10.23;;
57389;SDS011;43217;52.694;6.214;2022-12-18T16:34:18;15.27;;;12.93;;
57389;SDS011;43217;52.694;6.214;2022-12-18T16:36:50;15.18;;;11.55;;
57389;SDS011;43217;52.694;6.214;2022-12-18T16:39:18;11.75;;;9.73;;
57389;SDS011;43217;52.694;6.214;2022-12-18T16:41:44;12.18;;;10.73;;